Time;durP1;ratioP1;P1;durP2;ratioP2;P2;SDS_P1;SDS_P2;PMS_P1;PMS_P2;Temp;Humidity;BMP_temperature;BMP_pressure;BME280_temperature;BME280_humidity;BME280_pressure;Samples;Min_cycle;Max_cycle;Signal;HPM_P1;HPM_P2
2022/02/07 00:00:21;;;;;;;1.20;0.60;;;4.00;99.90;;;;;;5045354;28;20417;-73
2022/02/07 00:05:28;;;;;;;0.80;0.60;;;4.00;99.90;;;;;;5044661;28;20452;-72
2022/02/07 00:07:55;;;;;;;0.80;0.60;;;4.00;99.90;;;;;;5044607;28;20413;-73
2022/02/07 00:10:21;;;;;;;0.60;0.50;;;4.00;99.90;;;;;;5044701;28;20499;-73
2022/02/07 00:12:47;;;;;;;0.73;0.57;;;3.90;99.90;;;;;;5044916;28;20607;-74
2022/02/07 00:15:14;;;;;;;1.00;0.53;;;3.90;99.90;;;;;;5044532;28;21012;-73
2022/02/07 00:17:40;;;;;;;0.73;0.57;;;4.00;99.90;;;;;;5044447;28;20240;-75
2022/02/07 00:20:10;;;;;;;0.60;0.50;;;3.90;99.90;;;;;;5044030;28;20901;-75
2022/02/07 00:22:36;;;;;;;0.87;0.60;;;3.90;99.90;;;;;;5043301;28;20474;-75
2022/02/07 00:25:02;;;;;;;1.77;0.70;;;4.00;99.90;;;;;;5044050;28;20432;-73
2022/02/07 00:27:28;;;;;;;0.87;0.53;;;4.00;99.90;;;;;;5044242;28;20186;-73
2022/02/07 00:29:54;;;;;;;1.00;0.70;;;4.00;99.90;;;;;;5044204;28;20417;-74
2022/02/07 00:32:19;;;;;;;0.80;0.70;;;3.90;99.90;;;;;;5044146;28;20190;-75
2022/02/07 00:34:45;;;;;;;1.97;0.80;;;4.00;99.90;;;;;;5042907;28;20242;-74
2022/02/07 00:37:10;;;;;;;0.70;0.60;;;4.10;99.90;;;;;;5043929;28;20439;-75
2022/02/07 00:39:48;;;;;;;0.90;0.70;;;4.20;99.90;;;;;;5044164;28;20265;-74
2022/02/07 00:42:29;;;;;;;1.67;1.00;;;4.30;99.90;;;;;;5043971;28;20167;-74
2022/02/07 00:44:56;;;;;;;0.80;0.60;;;4.30;99.90;;;;;;5025917;28;20480;-74
2022/02/07 00:47:22;;;;;;;1.70;0.90;;;4.30;99.90;;;;;;5043758;28;20479;-75
2022/02/07 00:49:47;;;;;;;1.00;0.73;;;4.20;99.90;;;;;;5043495;28;20432;-75
2022/02/07 00:52:13;;;;;;;1.60;0.57;;;4.30;99.90;;;;;;5044132;28;20505;-75
2022/02/07 00:54:39;;;;;;;1.40;0.73;;;4.30;99.90;;;;;;5043683;28;20217;-73
2022/02/07 00:57:04;;;;;;;0.80;0.60;;;4.30;99.90;;;;;;5043767;28;20210;-74
2022/02/07 00:59:30;;;;;;;0.60;0.50;;;4.30;99.90;;;;;;5042427;28;20297;-74
2022/02/07 01:01:55;;;;;;;1.87;0.63;;;4.20;99.90;;;;;;5043644;28;20170;-73
2022/02/07 01:04:21;;;;;;;1.10;0.70;;;4.30;99.90;;;;;;5043270;28;20244;-73
2022/02/07 01:06:47;;;;;;;0.70;0.57;;;4.30;99.90;;;;;;5043736;28;20214;-72
2022/02/07 01:14:50;;;;;;;0.80;0.60;;;4.50;99.90;;;;;;5067416;28;20307;-73
2022/02/07 01:18:14;;;;;;;0.70;0.60;;;4.40;99.90;;;;;;5067648;28;20470;-74
2022/02/07 01:47:52;;;;;;;0.73;0.60;;;4.60;99.90;;;;;;5068030;28;20439;-71
2022/02/07 01:57:55;;;;;;;1.00;0.60;;;4.60;99.90;;;;;;5071553;28;20423;-73
2022/02/07 02:00:22;;;;;;;1.80;0.70;;;4.80;99.90;;;;;;5052427;28;20249;-75
2022/02/07 02:02:47;;;;;;;1.37;0.83;;;4.80;99.90;;;;;;5070675;28;20482;-73
2022/02/07 02:05:14;;;;;;;4.50;0.93;;;4.80;99.90;;;;;;5053054;28;20955;-75
2022/02/07 02:07:40;;;;;;;1.00;0.73;;;4.90;99.90;;;;;;5070846;28;20193;-72
2022/02/07 02:10:07;;;;;;;2.80;0.90;;;4.90;99.90;;;;;;5071063;28;20431;-73
2022/02/07 02:12:38;;;;;;;1.97;0.80;;;4.80;99.90;;;;;;5070171;28;20524;-75
2022/02/07 02:15:52;;;;;;;1.17;0.90;;;4.90;99.90;;;;;;5070093;28;20532;-74
2022/02/07 02:32:39;;;;;;;0.80;0.70;;;5.20;99.90;;;;;;5071162;28;20501;-74
2022/02/07 02:47:21;;;;;;;3.20;0.80;;;5.40;99.90;;;;;;5071776;28;20395;-75
2022/02/07 02:50:00;;;;;;;0.90;0.77;;;5.20;99.90;;;;;;5071185;28;20415;-74
2022/02/07 02:52:26;;;;;;;2.70;0.77;;;5.00;99.90;;;;;;5070996;28;20432;-75
2022/02/07 02:54:51;;;;;;;3.10;1.10;;;5.00;99.90;;;;;;5070330;28;20892;-72
2022/02/07 02:57:17;;;;;;;1.77;1.07;;;5.00;99.90;;;;;;5053011;28;20221;-74
2022/02/07 02:59:42;;;;;;;1.50;1.13;;;5.10;99.90;;;;;;5070898;28;20661;-73
2022/02/07 03:02:08;;;;;;;0.87;0.80;;;5.10;99.90;;;;;;5052859;28;20304;-74
2022/02/07 03:04:33;;;;;;;2.50;0.90;;;5.10;99.90;;;;;;5052450;28;20189;-73
2022/02/07 03:06:59;;;;;;;1.50;1.00;;;5.40;99.90;;;;;;5052318;28;20182;-72
2022/02/07 03:09:24;;;;;;;1.10;0.80;;;5.40;99.90;;;;;;5051851;28;20181;-75
2022/02/07 03:11:51;;;;;;;2.67;1.07;;;5.30;99.90;;;;;;5069545;28;20224;-74
2022/02/07 03:14:23;;;;;;;2.07;1.27;;;5.10;99.90;;;;;;5070359;28;20184;-74
2022/02/07 03:16:50;;;;;;;3.20;1.10;;;5.10;99.90;;;;;;5069899;28;20420;-74
2022/02/07 03:19:18;;;;;;;1.10;1.00;;;4.90;99.90;;;;;;5052070;28;20505;-72
2022/02/07 03:21:44;;;;;;;1.60;1.17;;;4.90;99.90;;;;;;5052419;28;20444;-71
2022/02/07 03:24:10;;;;;;;1.67;1.10;;;5.00;99.90;;;;;;5051618;28;20420;-73
2022/02/07 03:26:39;;;;;;;1.30;1.20;;;5.00;99.90;;;;;;5069688;28;20439;-75
2022/02/07 03:29:06;;;;;;;1.63;1.33;;;5.10;99.90;;;;;;5069294;28;20423;-72
2022/02/07 03:31:32;;;;;;;4.27;1.30;;;5.10;99.90;;;;;;5071148;28;20428;-75
2022/02/07 03:33:57;;;;;;;2.83;1.03;;;5.00;99.90;;;;;;5055697;28;20426;-75
2022/02/07 03:36:28;;;;;;;2.70;0.97;;;5.10;99.90;;;;;;5055511;28;20209;-74
2022/02/07 03:38:53;;;;;;;4.93;1.60;;;5.00;99.90;;;;;;5052117;28;20190;-74
2022/02/07 03:41:19;;;;;;;3.03;1.70;;;5.00;99.90;;;;;;5068895;28;20501;-74
2022/02/07 03:43:45;;;;;;;3.27;1.37;;;5.10;99.90;;;;;;5051008;28;20206;-73
2022/02/07 03:46:11;;;;;;;1.23;0.90;;;5.10;99.90;;;;;;5068958;28;20618;-74
2022/02/07 03:48:36;;;;;;;0.90;0.70;;;4.90;99.90;;;;;;5069059;28;20193;-72
2022/02/07 03:51:02;;;;;;;0.87;0.60;;;4.30;99.90;;;;;;5051160;28;20796;-74
2022/02/07 03:53:28;;;;;;;1.37;0.53;;;4.00;99.90;;;;;;5069728;28;20182;-73
2022/02/07 03:55:54;;;;;;;1.00;0.67;;;3.80;99.90;;;;;;5070112;28;20680;-74
2022/02/07 03:58:21;;;;;;;1.07;0.60;;;3.40;99.90;;;;;;5071270;28;20465;-74
2022/02/07 04:00:48;;;;;;;1.03;0.70;;;3.30;99.90;;;;;;5069994;28;20658;-72
2022/02/07 04:03:16;;;;;;;1.00;0.70;;;3.30;99.90;;;;;;5051353;28;20420;-73
2022/02/07 04:05:55;;;;;;;0.90;0.80;;;3.30;99.90;;;;;;5069927;28;20447;-73
2022/02/07 04:08:27;;;;;;;0.70;0.70;;;3.20;99.90;;;;;;5051380;28;20514;-73
2022/02/07 04:11:00;;;;;;;0.90;0.80;;;3.20;99.90;;;;;;5069261;28;20427;-74
2022/02/07 04:13:29;;;;;;;0.80;0.70;;;3.10;99.90;;;;;;5051625;28;20442;-73
2022/02/07 04:15:56;;;;;;;1.30;0.80;;;3.10;99.90;;;;;;5067601;28;20460;-73
2022/02/07 04:18:26;;;;;;;1.27;0.87;;;3.10;99.90;;;;;;5050578;28;20502;-74
2022/02/07 04:20:51;;;;;;;1.63;1.20;;;3.10;99.90;;;;;;5049616;28;20424;-73
2022/02/07 04:23:17;;;;;;;1.70;0.60;;;3.20;99.90;;;;;;5051446;28;20416;-71
2022/02/07 04:25:42;;;;;;;1.73;0.80;;;3.10;99.90;;;;;;5069801;28;20186;-73
2022/02/07 04:28:08;;;;;;;1.93;0.70;;;3.10;99.90;;;;;;5050690;28;20662;-74
2022/02/07 04:30:34;;;;;;;0.80;0.60;;;3.20;99.90;;;;;;5050425;28;20730;-74
2022/02/07 04:32:59;;;;;;;3.10;1.30;;;3.10;99.90;;;;;;5068361;28;20244;-72
2022/02/07 04:35:25;;;;;;;1.40;0.70;;;3.20;99.90;;;;;;5051399;28;20297;-73
2022/02/07 04:37:51;;;;;;;1.70;0.70;;;3.20;99.90;;;;;;5068102;28;20189;-72
2022/02/07 04:40:16;;;;;;;2.00;1.00;;;3.30;99.90;;;;;;5069170;28;20413;-73
2022/02/07 04:42:42;;;;;;;1.43;0.97;;;3.30;99.90;;;;;;5068943;28;20198;-73
2022/02/07 04:55:43;;;;;;;0.90;0.70;;;3.20;99.90;;;;;;5069069;28;20458;-74
2022/02/07 05:03:38;;;;;;;1.20;0.90;;;3.20;99.90;;;;;;5068017;28;20463;-74
2022/02/07 05:14:11;;;;;;;4.23;1.20;;;3.20;99.90;;;;;;5069406;28;20406;-74
2022/02/07 05:16:36;;;;;;;4.17;1.40;;;3.20;99.90;;;;;;5050472;28;20459;-73
2022/02/07 05:19:05;;;;;;;3.47;1.03;;;3.20;99.90;;;;;;5051320;28;20734;-74
2022/02/07 05:21:30;;;;;;;2.57;1.40;;;3.20;99.90;;;;;;5050711;28;20224;-74
2022/02/07 05:23:56;;;;;;;7.37;1.40;;;3.20;99.90;;;;;;5069232;28;20502;-74
2022/02/07 05:26:23;;;;;;;2.73;1.23;;;3.30;99.90;;;;;;5050576;28;20220;-74
2022/02/07 05:28:48;;;;;;;4.80;1.73;;;3.30;99.90;;;;;;5066596;28;20481;-74
2022/02/07 05:31:15;;;;;;;2.10;1.30;;;3.30;99.90;;;;;;5053571;28;20471;-74
2022/02/07 05:33:41;;;;;;;2.93;1.57;;;3.20;99.90;;;;;;5070843;28;20900;-72
2022/02/07 05:36:09;;;;;;;2.27;1.47;;;3.20;99.90;;;;;;5052652;28;20518;-72
2022/02/07 05:38:37;;;;;;;4.13;1.50;;;3.20;99.90;;;;;;5075527;28;20194;-73
2022/02/07 05:41:05;;;;;;;7.93;1.93;;;3.20;99.90;;;;;;5056535;28;20408;-73
2022/02/07 05:43:31;;;;;;;2.17;1.03;;;3.30;99.90;;;;;;5075083;28;20531;-75
2022/02/07 05:45:56;;;;;;;4.63;1.53;;;3.30;99.90;;;;;;5053650;28;20554;-72
2022/02/07 05:48:22;;;;;;;2.33;1.73;;;3.30;99.90;;;;;;5052302;28;20173;-74
2022/02/07 05:50:48;;;;;;;3.20;1.30;;;3.40;99.90;;;;;;5055904;28;21131;-73
2022/02/07 05:53:13;;;;;;;2.70;1.43;;;3.40;99.90;;;;;;5076881;28;20198;-74
2022/02/07 05:55:39;;;;;;;5.20;1.30;;;3.40;99.90;;;;;;5076454;28;20635;-73
2022/02/07 05:58:05;;;;;;;3.90;1.53;;;3.40;99.90;;;;;;5073895;28;20634;-74
2022/02/07 06:00:33;;;;;;;3.00;1.43;;;3.40;99.90;;;;;;5072450;28;20178;-72
2022/02/07 06:03:02;;;;;;;3.33;1.53;;;3.60;99.90;;;;;;5070837;28;20194;-74
2022/02/07 06:05:29;;;;;;;5.90;1.73;;;3.70;99.90;;;;;;5070786;28;20427;-74
2022/02/07 06:07:55;;;;;;;5.67;1.30;;;3.70;99.90;;;;;;5071139;28;20419;-72
2022/02/07 06:10:21;;;;;;;4.37;1.40;;;3.70;99.90;;;;;;5072110;28;20486;-73
2022/02/07 06:12:48;;;;;;;3.70;2.00;;;3.70;99.90;;;;;;5070884;28;20542;-77
2022/02/07 06:15:14;;;;;;;3.47;1.53;;;3.70;99.90;;;;;;5070542;28;20964;-75
2022/02/07 06:17:41;;;;;;;5.57;1.50;;;3.70;99.90;;;;;;5052478;28;20416;-73
2022/02/07 06:20:08;;;;;;;3.60;1.77;;;3.80;99.90;;;;;;5052029;28;20952;-74
2022/02/07 06:22:33;;;;;;;2.80;1.13;;;3.80;99.90;;;;;;5052220;28;20586;-73
2022/02/07 06:25:00;;;;;;;6.13;1.40;;;3.80;99.90;;;;;;5070550;28;20980;-74
2022/02/07 06:27:26;;;;;;;4.53;1.40;;;3.90;99.90;;;;;;5070022;28;20212;-73
2022/02/07 06:29:51;;;;;;;6.20;1.63;;;3.90;99.90;;;;;;5069870;28;20408;-71
2022/02/07 06:32:17;;;;;;;3.90;1.33;;;4.00;99.90;;;;;;5069487;28;20216;-73
2022/02/07 06:34:42;;;;;;;4.70;1.90;;;4.00;99.90;;;;;;5070214;28;20363;-73
2022/02/07 06:37:08;;;;;;;3.10;1.60;;;3.90;99.90;;;;;;5069919;28;20213;-73
2022/02/07 06:39:34;;;;;;;6.33;1.70;;;3.90;99.90;;;;;;5052304;28;20186;-74
2022/02/07 06:42:00;;;;;;;6.73;1.70;;;3.90;99.90;;;;;;5054650;28;20194;-73
2022/02/07 06:44:27;;;;;;;6.90;1.40;;;3.90;99.90;;;;;;5071810;28;20418;-72
2022/02/07 06:46:53;;;;;;;3.77;1.43;;;3.90;99.90;;;;;;5052158;28;20454;-73
2022/02/07 06:49:20;;;;;;;3.67;1.50;;;3.80;99.90;;;;;;5070698;28;20427;-74
2022/02/07 06:51:46;;;;;;;2.93;1.50;;;3.80;99.90;;;;;;5069431;28;20440;-72
2022/02/07 06:54:12;;;;;;;3.83;1.63;;;3.90;99.90;;;;;;5050874;28;20477;-73
2022/02/07 06:56:39;;;;;;;4.30;1.50;;;4.10;99.90;;;;;;5050657;28;20228;-72
2022/02/07 06:59:05;;;;;;;6.60;3.37;;;4.20;99.90;;;;;;5050723;28;20471;-72
2022/02/07 07:01:30;;;;;;;4.70;1.83;;;4.20;99.90;;;;;;5051557;28;20443;-74
2022/02/07 07:03:56;;;;;;;2.77;1.30;;;4.20;99.90;;;;;;5052733;28;20186;-72
2022/02/07 07:06:22;;;;;;;7.67;1.70;;;4.10;99.90;;;;;;5071100;28;20192;-73
2022/02/07 07:08:52;;;;;;;3.30;1.67;;;4.20;99.90;;;;;;5073881;28;20282;-70
2022/02/07 07:11:21;;;;;;;3.93;1.60;;;4.20;99.90;;;;;;5056402;28;20218;-71
2022/02/07 07:13:52;;;;;;;2.87;1.83;;;4.30;99.90;;;;;;5056627;28;20513;-71
2022/02/07 07:16:50;;;;;;;4.70;1.37;;;4.20;99.90;;;;;;5056084;28;20486;-72
2022/02/07 07:19:05;;;;;;;2.80;1.70;;;4.20;99.90;;;;;;5073363;28;20420;-72
2022/02/07 07:21:32;;;;;;;4.60;1.90;;;4.20;99.90;;;;;;5073168;28;21271;-73
2022/02/07 07:23:58;;;;;;;1.90;1.13;;;4.30;99.90;;;;;;5075513;28;20516;-71
2022/02/07 07:26:25;;;;;;;4.47;1.57;;;4.40;99.90;;;;;;5074898;28;20416;-72
2022/02/07 07:28:52;;;;;;;5.95;1.67;;;4.30;99.90;;;;;;5054728;28;20434;-72
2022/02/07 07:31:19;;;;;;;7.10;2.30;;;4.30;99.90;;;;;;5072576;28;20454;-71
2022/02/07 07:33:50;;;;;;;7.13;1.73;;;4.20;99.90;;;;;;5072016;28;20411;-70
2022/02/07 07:36:15;;;;;;;7.90;2.40;;;4.20;99.90;;;;;;5068009;28;20463;-70
2022/02/07 07:38:41;;;;;;;2.50;1.20;;;4.30;99.90;;;;;;5067353;28;20410;-73
2022/02/07 07:41:07;;;;;;;5.20;1.90;;;4.20;99.90;;;;;;5068005;28;20181;-71
2022/02/07 07:43:33;;;;;;;4.07;1.80;;;4.30;99.90;;;;;;5050911;28;20506;-72
2022/02/07 07:46:05;;;;;;;4.60;1.87;;;4.20;99.90;;;;;;5049862;28;20442;-71
2022/02/07 07:48:32;;;;;;;4.00;1.60;;;4.20;99.90;;;;;;5048863;28;20205;-70
2022/02/07 07:51:20;;;;;;;4.77;2.17;;;4.30;99.90;;;;;;5066985;28;20423;-70
2022/02/07 07:54:13;;;;;;;7.33;2.80;;;4.20;99.90;;;;;;5066536;28;20944;-71
2022/02/07 08:02:09;;;;;;;6.03;2.50;;;4.00;99.90;;;;;;5066212;28;20481;-70
2022/02/07 08:04:35;;;;;;;3.80;2.30;;;4.00;99.90;;;;;;5066253;28;20404;-68
2022/02/07 08:07:15;;;;;;;7.23;2.43;;;4.00;99.90;;;;;;5066809;28;20477;-70
2022/02/07 08:12:14;;;;;;;13.50;3.07;;;4.10;99.90;;;;;;5073691;28;20455;-70
2022/02/07 08:14:40;;;;;;;8.03;1.90;;;4.20;99.90;;;;;;5075338;28;20864;-70
2022/02/07 08:17:07;;;;;;;4.30;2.13;;;4.20;99.90;;;;;;5058152;28;21459;-69
2022/02/07 08:19:33;;;;;;;5.07;2.07;;;4.30;99.90;;;;;;5077086;28;20408;-69
2022/02/07 08:22:00;;;;;;;7.63;2.40;;;4.40;99.90;;;;;;5075308;28;20498;-71
2022/02/07 08:24:26;;;;;;;2.80;1.70;;;4.40;99.90;;;;;;5077988;28;20416;-69
2022/02/07 08:26:53;;;;;;;9.27;2.20;;;4.40;99.90;;;;;;5056024;28;20420;-72
2022/02/07 08:29:20;;;;;;;8.23;1.70;;;4.40;99.90;;;;;;5066734;28;20920;-71
2022/02/07 08:31:46;;;;;;;6.87;2.47;;;4.50;99.90;;;;;;5065562;28;20491;-72
2022/02/07 08:34:12;;;;;;;3.97;1.73;;;4.50;99.90;;;;;;5067688;28;20450;-70
2022/02/07 08:36:37;;;;;;;4.90;2.10;;;4.70;99.90;;;;;;5067642;28;20238;-69
2022/02/07 08:39:04;;;;;;;3.33;1.53;;;4.60;99.90;;;;;;5065529;28;20726;-73
2022/02/07 08:41:30;;;;;;;4.40;2.37;;;4.50;99.90;;;;;;5046262;28;20247;-69
2022/02/07 08:43:57;;;;;;;8.40;2.07;;;4.60;99.90;;;;;;5065243;28;20427;-70
2022/02/07 08:46:23;;;;;;;5.47;2.07;;;4.70;99.90;;;;;;5064844;28;20480;-70
2022/02/07 08:48:49;;;;;;;9.27;2.67;;;4.60;99.90;;;;;;5063824;28;20428;-68
2022/02/07 08:51:16;;;;;;;4.07;1.73;;;4.70;99.90;;;;;;5065861;28;20424;-69
2022/02/07 08:53:44;;;;;;;3.40;1.97;;;4.70;99.90;;;;;;5064833;28;20425;-70
2022/02/07 08:56:11;;;;;;;6.00;1.63;;;4.80;99.90;;;;;;5064316;28;20455;-68
2022/02/07 08:58:40;;;;;;;4.97;1.83;;;5.00;99.90;;;;;;5064608;28;20447;-70
2022/02/07 09:11:15;;;;;;;6.10;2.03;;;5.50;99.90;;;;;;5066957;28;20556;-70
2022/02/07 09:13:44;;;;;;;4.50;1.87;;;5.60;99.90;;;;;;5067189;28;20184;-71
2022/02/07 09:18:39;;;;;;;7.63;1.70;;;5.80;99.90;;;;;;5064648;28;20408;-74
2022/02/07 09:21:06;;;;;;;2.43;1.30;;;5.80;99.90;;;;;;5046589;28;20419;-72
2022/02/07 09:23:34;;;;;;;4.60;2.03;;;5.90;99.90;;;;;;5046924;28;20405;-71
2022/02/07 09:25:59;;;;;;;5.47;2.00;;;6.00;99.90;;;;;;5064575;28;20875;-72
2022/02/07 09:28:27;;;;;;;8.13;2.17;;;6.00;99.90;;;;;;5064636;28;20404;-72
2022/02/07 09:30:53;;;;;;;5.23;2.17;;;6.00;99.90;;;;;;5045790;28;21220;-74
2022/02/07 09:33:20;;;;;;;4.27;1.80;;;6.20;99.90;;;;;;5065480;28;20408;-73
2022/02/07 09:35:48;;;;;;;6.60;2.10;;;6.20;99.90;;;;;;5048562;28;20204;-70
2022/02/07 09:38:13;;;;;;;4.00;2.20;;;6.20;99.90;;;;;;5067395;28;20416;-71
2022/02/07 09:40:39;;;;;;;6.17;1.73;;;6.20;99.90;;;;;;5065231;28;20408;-70
2022/02/07 09:43:05;;;;;;;5.70;2.90;;;6.20;99.90;;;;;;5064457;28;20239;-73
2022/02/07 09:45:34;;;;;;;4.43;2.10;;;6.20;99.90;;;;;;5064370;28;20251;-70
2022/02/07 09:48:03;;;;;;;4.33;2.20;;;6.30;99.90;;;;;;5063681;28;20408;-73
2022/02/07 09:50:29;;;;;;;7.03;1.97;;;6.40;99.90;;;;;;5064526;28;20413;-71
2022/02/07 09:52:55;;;;;;;9.20;2.73;;;6.20;99.90;;;;;;5066735;28;20459;-70
2022/02/07 09:55:21;;;;;;;8.77;2.63;;;6.10;99.90;;;;;;5046175;28;20488;-72
2022/02/07 09:57:51;;;;;;;3.50;1.47;;;6.20;99.90;;;;;;5062920;28;20419;-72
2022/02/07 10:00:20;;;;;;;7.17;2.00;;;6.20;99.90;;;;;;5065231;28;20480;-73
2022/02/07 10:03:05;;;;;;;6.70;2.37;;;6.20;99.90;;;;;;5064624;28;20432;-71
2022/02/07 10:05:33;;;;;;;8.33;3.07;;;6.20;99.90;;;;;;5044765;28;20415;-68
2022/02/07 10:08:13;;;;;;;3.70;1.70;;;6.20;99.90;;;;;;5063557;28;20936;-70
2022/02/07 10:10:46;;;;;;;3.97;2.23;;;6.30;99.90;;;;;;5064655;28;20485;-71
2022/02/07 10:13:22;;;;;;;4.97;2.00;;;6.50;99.90;;;;;;5068259;28;20497;-70
2022/02/07 10:15:58;;;;;;;8.73;2.80;;;6.60;99.90;;;;;;5066622;28;20455;-70
2022/02/07 10:21:22;;;;;;;4.87;2.00;;;6.50;99.90;;;;;;5068212;28;20530;-72
2022/02/07 10:38:11;;;;;;;4.53;1.80;;;6.60;99.90;;;;;;5068784;28;20446;-73
2022/02/07 10:41:06;;;;;;;5.90;2.60;;;6.80;99.90;;;;;;5067049;28;20432;-72
2022/02/07 10:43:45;;;;;;;6.00;2.30;;;6.90;99.90;;;;;;5065681;28;21743;-73
2022/02/07 10:48:43;;;;;;;5.20;2.30;;;7.00;99.90;;;;;;5066750;28;20428;-73
2022/02/07 10:51:18;;;;;;;5.57;2.37;;;6.90;99.90;;;;;;5065808;28;20422;-72
2022/02/07 10:53:55;;;;;;;4.80;2.00;;;7.00;99.90;;;;;;5066956;28;20402;-70
2022/02/07 10:56:26;;;;;;;9.37;2.10;;;7.10;99.90;;;;;;5068289;28;20517;-72
2022/02/07 10:58:54;;;;;;;7.23;1.93;;;7.10;99.90;;;;;;5067733;28;21363;-74
2022/02/07 11:03:56;;;;;;;2.70;2.03;;;6.90;99.90;;;;;;5069703;28;20406;-71
2022/02/07 11:06:33;;;;;;;5.33;2.27;;;6.90;99.90;;;;;;5069485;28;20510;-73
2022/02/07 11:11:46;;;;;;;4.23;2.10;;;7.60;99.90;;;;;;5062374;28;20461;-71
2022/02/07 11:24:57;;;;;;;6.73;2.43;;;8.00;99.90;;;;;;5066563;28;20786;-71
2022/02/07 11:27:39;;;;;;;7.30;1.90;;;7.70;99.90;;;;;;5066521;28;20803;-75
2022/02/07 11:30:13;;;;;;;3.47;2.10;;;7.40;99.90;;;;;;5067764;28;20420;-69
2022/02/07 11:32:39;;;;;;;2.47;1.40;;;7.30;99.90;;;;;;5067763;28;20937;-73
2022/02/07 11:35:16;;;;;;;2.63;1.57;;;7.30;99.90;;;;;;5067373;28;20476;-73
2022/02/07 11:37:49;;;;;;;5.23;2.10;;;7.30;99.90;;;;;;5048957;28;20468;-73
2022/02/07 11:40:29;;;;;;;5.40;1.93;;;7.20;99.90;;;;;;5067815;28;20495;-74
2022/02/07 11:43:18;;;;;;;3.50;1.90;;;7.10;99.90;;;;;;5065342;28;20804;-75
2022/02/07 11:46:05;;;;;;;3.10;1.70;;;7.00;99.90;;;;;;5065345;28;20413;-76
2022/02/07 11:48:43;;;;;;;7.30;2.20;;;6.90;99.90;;;;;;5065240;28;20405;-72
2022/02/07 11:51:17;;;;;;;5.93;2.20;;;6.90;99.90;;;;;;5046559;28;20451;-71
2022/02/07 11:53:57;;;;;;;7.77;2.10;;;6.70;99.90;;;;;;5064888;28;20424;-75
2022/02/07 11:56:36;;;;;;;6.27;2.27;;;6.80;99.90;;;;;;5068718;28;20456;-72
2022/02/07 11:59:08;;;;;;;5.23;2.00;;;6.90;99.90;;;;;;5067438;28;20408;-72
2022/02/07 12:02:17;;;;;;;5.47;1.43;;;6.90;99.90;;;;;;5068036;28;20436;-73
2022/02/07 12:04:48;;;;;;;6.93;2.20;;;6.80;99.90;;;;;;5066661;28;20411;-75
2022/02/07 12:07:26;;;;;;;2.90;1.90;;;7.00;99.90;;;;;;5066361;28;20424;-75
2022/02/07 12:12:50;;;;;;;5.80;2.13;;;6.80;99.90;;;;;;5036716;28;20528;-73
2022/02/07 12:18:21;;;;;;;5.77;2.20;;;6.80;99.90;;;;;;5066196;28;20398;-74
2022/02/07 12:20:52;;;;;;;7.70;2.03;;;6.80;99.90;;;;;;5048527;28;20446;-73
2022/02/07 12:23:20;;;;;;;3.77;1.83;;;6.90;99.90;;;;;;5070770;28;20501;-74
2022/02/07 12:25:56;;;;;;;4.63;1.93;;;6.90;99.90;;;;;;5064791;28;20560;-73
2022/02/07 12:28:38;;;;;;;10.47;1.53;;;7.00;99.90;;;;;;5047527;28;21410;-76
2022/02/07 12:33:36;;;;;;;3.57;1.60;;;7.20;99.90;;;;;;5063097;28;20505;-74
2022/02/07 12:36:03;;;;;;;6.20;2.00;;;7.30;99.90;;;;;;5063216;28;20514;-73
2022/02/07 12:38:33;;;;;;;5.00;1.80;;;7.40;99.90;;;;;;5064394;28;20951;-74
2022/02/07 12:40:59;;;;;;;3.73;1.50;;;7.40;99.90;;;;;;5061672;28;20762;-72
2022/02/07 12:43:26;;;;;;;5.53;1.93;;;7.50;99.90;;;;;;5060210;28;20423;-73
2022/02/07 12:45:52;;;;;;;3.10;1.90;;;7.50;99.90;;;;;;5062624;28;21547;-74
2022/02/07 12:48:25;;;;;;;5.63;2.03;;;7.80;99.90;;;;;;5062249;28;20501;-73
2022/02/07 12:50:53;;;;;;;8.30;2.10;;;7.80;99.90;;;;;;5062473;28;20414;-73
2022/02/07 12:53:24;;;;;;;4.90;1.93;;;7.70;99.90;;;;;;5062690;28;20421;-74
2022/02/07 12:55:55;;;;;;;7.20;2.30;;;7.70;99.90;;;;;;5045302;28;20827;-74
2022/02/07 12:58:36;;;;;;;7.53;2.57;;;7.60;99.90;;;;;;5060964;28;20791;-72
2022/02/07 13:01:23;;;;;;;5.53;2.27;;;7.80;99.90;;;;;;5043865;28;20796;-73
2022/02/07 13:03:59;;;;;;;6.47;1.93;;;7.80;99.90;;;;;;5045667;28;20513;-74
2022/02/07 13:06:34;;;;;;;9.50;2.20;;;7.60;99.90;;;;;;5060766;28;20998;-71
2022/02/07 13:09:03;;;;;;;5.70;2.40;;;7.40;99.90;;;;;;5061421;28;20517;-74
2022/02/07 13:11:33;;;;;;;3.13;1.90;;;7.20;99.90;;;;;;5063436;28;20453;-72
2022/02/07 13:13:59;;;;;;;5.87;2.60;;;7.10;99.90;;;;;;5062242;28;20411;-73
2022/02/07 13:16:32;;;;;;;4.80;2.27;;;7.10;99.90;;;;;;5044678;28;20485;-74
2022/02/07 13:19:20;;;;;;;7.40;2.37;;;7.00;99.90;;;;;;5062956;28;20405;-74
2022/02/07 13:21:49;;;;;;;6.57;2.30;;;7.00;99.90;;;;;;5043591;28;20500;-75
2022/02/07 13:24:30;;;;;;;7.23;2.27;;;7.00;99.90;;;;;;5043918;28;20416;-75
2022/02/07 13:26:58;;;;;;;7.40;2.00;;;7.00;99.90;;;;;;5061956;28;20405;-76
2022/02/07 13:29:27;;;;;;;5.93;2.27;;;7.00;99.90;;;;;;5064162;28;20461;-76
2022/02/07 13:32:05;;;;;;;5.57;2.10;;;7.00;99.90;;;;;;5063393;28;20516;-72
2022/02/07 13:34:33;;;;;;;3.47;1.93;;;7.20;99.90;;;;;;5062466;28;20406;-74
2022/02/07 13:37:07;;;;;;;3.10;1.60;;;7.40;99.90;;;;;;5044260;28;20452;-73
2022/02/07 13:39:52;;;;;;;5.07;2.40;;;7.30;99.90;;;;;;5065138;28;20422;-74
2022/02/07 13:42:28;;;;;;;3.07;2.30;;;7.40;99.90;;;;;;5045087;28;20427;-72
2022/02/07 13:45:06;;;;;;;5.23;1.80;;;7.60;99.90;;;;;;5063939;28;20411;-73
2022/02/07 13:47:33;;;;;;;4.50;2.33;;;7.90;99.90;;;;;;5064320;28;20898;-71
2022/02/07 13:50:07;;;;;;;5.90;1.57;;;8.00;99.90;;;;;;5065712;28;20457;-70
2022/02/07 13:52:44;;;;;;;3.00;1.63;;;8.00;99.90;;;;;;5068027;28;20433;-70
2022/02/07 13:55:24;;;;;;;5.07;2.10;;;7.70;99.90;;;;;;5067740;28;20497;-73
2022/02/07 13:57:59;;;;;;;4.43;2.20;;;7.70;99.90;;;;;;5049619;28;20414;-72
2022/02/07 14:00:38;;;;;;;5.43;2.00;;;7.60;99.90;;;;;;5068003;28;20981;-71
2022/02/07 14:03:42;;;;;;;2.60;1.73;;;7.50;99.90;;;;;;5068774;28;20472;-71
2022/02/07 14:06:09;;;;;;;6.67;1.97;;;7.60;99.90;;;;;;4968463;28;20436;-70
2022/02/07 14:08:38;;;;;;;5.47;1.67;;;7.50;99.90;;;;;;5049961;28;20431;-70
2022/02/07 14:11:11;;;;;;;5.77;2.00;;;7.60;99.90;;;;;;5070057;28;20414;-69
2022/02/07 14:13:37;;;;;;;5.70;2.00;;;7.60;99.90;;;;;;5051079;28;20414;-71
2022/02/07 14:16:04;;;;;;;5.83;2.60;;;7.70;99.90;;;;;;5067073;28;20903;-71
2022/02/07 14:18:32;;;;;;;2.60;2.00;;;7.80;99.90;;;;;;5067492;28;20423;-70
2022/02/07 14:21:07;;;;;;;4.40;2.00;;;7.80;99.90;;;;;;5068636;28;20601;-70
2022/02/07 14:23:34;;;;;;;4.80;1.80;;;7.70;99.90;;;;;;5067174;28;20408;-73
2022/02/07 14:26:01;;;;;;;6.60;2.50;;;7.70;99.90;;;;;;5068089;28;20931;-73
2022/02/07 14:28:27;;;;;;;3.73;2.13;;;7.60;99.90;;;;;;5066485;28;20411;-72
2022/02/07 14:30:54;;;;;;;8.43;2.47;;;7.60;99.90;;;;;;5067475;28;20426;-72
2022/02/07 14:33:20;;;;;;;6.53;2.20;;;7.50;99.90;;;;;;5066989;28;20957;-74
2022/02/07 14:35:45;;;;;;;6.03;1.67;;;7.60;99.90;;;;;;5068166;28;21428;-72
2022/02/07 14:38:11;;;;;;;3.07;1.47;;;7.80;99.90;;;;;;5066248;28;20447;-74
2022/02/07 14:40:40;;;;;;;8.43;2.43;;;7.70;99.90;;;;;;5067608;28;20708;-71
2022/02/07 14:43:07;;;;;;;5.50;2.23;;;7.70;99.90;;;;;;5067039;28;21211;-71
2022/02/07 14:46:22;;;;;;;3.63;2.00;;;7.60;99.90;;;;;;5068163;28;20428;-72
2022/02/07 14:48:24;;;;;;;5.90;2.23;;;7.70;99.90;;;;;;5060992;28;20424;-71
2022/02/07 14:50:50;;;;;;;4.73;2.40;;;7.90;99.90;;;;;;5067915;28;20428;-72
2022/02/07 14:53:16;;;;;;;5.80;2.20;;;7.80;99.90;;;;;;5067019;28;20426;-72
2022/02/07 14:55:42;;;;;;;8.97;2.27;;;7.70;99.90;;;;;;5048928;28;20461;-71
2022/02/07 14:58:08;;;;;;;4.53;2.20;;;7.50;99.90;;;;;;5067451;28;20395;-73
2022/02/07 15:00:35;;;;;;;5.83;2.03;;;7.50;99.90;;;;;;5067584;28;20175;-72
2022/02/07 15:03:01;;;;;;;6.70;2.33;;;7.50;99.90;;;;;;5065753;28;21238;-76
2022/02/07 15:05:31;;;;;;;3.60;2.03;;;7.50;99.90;;;;;;5067258;28;20426;-74
2022/02/07 15:08:00;;;;;;;4.37;2.00;;;7.40;99.90;;;;;;5066880;28;20410;-75
2022/02/07 15:10:28;;;;;;;5.93;2.37;;;7.20;99.90;;;;;;5069251;28;20413;-74
2022/02/07 15:12:54;;;;;;;5.70;2.23;;;7.10;99.90;;;;;;5065712;28;20492;-75
2022/02/07 15:15:20;;;;;;;7.40;2.50;;;7.10;99.90;;;;;;5066545;28;20457;-75
2022/02/07 15:17:47;;;;;;;6.87;3.20;;;7.00;99.90;;;;;;5066484;28;20424;-75
2022/02/07 15:20:13;;;;;;;8.60;2.87;;;6.90;99.90;;;;;;5066558;28;20231;-75
2022/02/07 15:22:47;;;;;;;6.43;2.77;;;6.90;99.90;;;;;;5065764;28;20440;-73
2022/02/07 15:25:19;;;;;;;6.07;2.63;;;6.90;99.90;;;;;;5066571;28;20416;-72
2022/02/07 15:27:46;;;;;;;8.10;2.37;;;6.90;99.90;;;;;;5067012;28;20418;-74
2022/02/07 15:30:12;;;;;;;4.47;2.60;;;6.80;99.90;;;;;;5049974;28;20501;-72
2022/02/07 15:32:41;;;;;;;7.90;3.40;;;6.70;99.90;;;;;;5065651;28;20911;-71
2022/02/07 15:35:08;;;;;;;9.93;2.63;;;6.70;99.90;;;;;;5065879;28;20469;-71
2022/02/07 15:37:34;;;;;;;5.77;2.60;;;6.80;99.90;;;;;;5065733;28;20769;-71
2022/02/07 15:40:00;;;;;;;5.50;2.60;;;6.60;99.90;;;;;;5048735;28;20944;-73
2022/02/07 15:42:26;;;;;;;7.53;3.40;;;6.60;99.90;;;;;;5071811;28;20438;-74
2022/02/07 15:44:56;;;;;;;5.83;2.03;;;6.50;99.90;;;;;;5049789;28;20415;-73
2022/02/07 15:47:21;;;;;;;5.40;2.50;;;6.50;99.90;;;;;;5065916;28;20408;-72